Time,TemperatureF,DewpointF,PressureIn,WindDirection,WindDirectionDegrees,WindSpeedMPH,WindSpeedGustMPH,Humidity,HourlyPrecipIn,Conditions,Clouds,dailyrainin,SoftwareType,DateUTC
2013-05-08 00:02:00,61.0,48.0,29.98,North,-999,-999.0,-999.0,63,-99.99,,,-99.99,,2013-05-08 05:02:00,
2013-05-08 00:12:00,61.0,50.0,29.98,North,-999,-999.0,-999.0,67,-99.99,,,-99.99,,2013-05-08 05:12:00,
2013-05-08 00:22:00,61.0,50.0,29.98,North,-999,-999.0,-999.0,67,-99.99,,,-99.99,,2013-05-08 05:22:00,
2013-05-08 00:32:00,57.0,50.0,29.98,North,-999,-999.0,-999.0,76,-99.99,,,-99.99,,2013-05-08 05:32:00,
2013-05-08 00:42:00,57.0,50.0,29.98,North,-999,-999.0,-999.0,76,-99.99,,,-99.99,,2013-05-08 05:42:00,
2013-05-08 00:52:00,57.0,50.0,29.99,North,-999,-999.0,-999.0,76,-99.99,,,-99.99,,2013-05-08 05:52:00,
2013-05-08 01:01:00,57.0,50.0,29.99,North,-999,-999.0,-999.0,76,-99.99,,,-99.99,,2013-05-08 06:01:00,
2013-05-08 01:12:00,55.0,48.0,29.99,North,-999,-999.0,-999.0,76,-99.99,,,-99.99,,2013-05-08 06:12:00,
2013-05-08 01:21:00,55.0,48.0,29.99,North,-999,-999.0,-999.0,76,-99.99,,,-99.99,,2013-05-08 06:21:00,
2013-05-08 01:32:00,55.0,48.0,29.98,North,-999,-999.0,-999.0,76,-99.99,,,-99.99,,2013-05-08 06:32:00,
2013-05-08 01:42:00,55.0,48.0,29.98,North,-999,-999.0,-999.0,76,-99.99,,,-99.99,,2013-05-08 06:42:00,
2013-05-08 01:52:00,54.0,48.0,29.99,North,-999,-999.0,-999.0,81,-99.99,,,-99.99,,2013-05-08 06:52:00,
2013-05-08 02:01:00,54.0,48.0,29.99,North,-999,-999.0,-999.0,81,-99.99,,,-99.99,,2013-05-08 07:01:00,
2013-05-08 02:11:00,54.0,48.0,29.98,North,-999,-999.0,-999.0,81,-99.99,,,-99.99,,2013-05-08 07:11:00,
2013-05-08 02:21:00,54.0,48.0,29.98,North,-999,-999.0,-999.0,81,-99.99,,,-99.99,,2013-05-08 07:21:00,
2013-05-08 02:32:00,54.0,48.0,29.98,North,-999,-999.0,-999.0,81,-99.99,,,-99.99,,2013-05-08 07:32:00,
2013-05-08 02:42:00,54.0,48.0,29.98,North,-999,-999.0,-999.0,81,-99.99,,,-99.99,,2013-05-08 07:42:00,
2013-05-08 02:52:00,54.0,48.0,29.98,North,-999,-999.0,-999.0,81,-99.99,,,-99.99,,2013-05-08 07:52:00,
2013-05-08 03:01:00,54.0,48.0,29.98,North,-999,-999.0,-999.0,81,-99.99,,,-99.99,,2013-05-08 08:01:00,
2013-05-08 03:11:00,54.0,48.0,29.98,North,-999,-999.0,-999.0,81,-99.99,,,-99.99,,2013-05-08 08:11:00,
2013-05-08 03:21:00,54.0,48.0,29.98,North,-999,-999.0,-999.0,81,-99.99,,,-99.99,,2013-05-08 08:21:00,
2013-05-08 03:31:00,54.0,48.0,29.98,North,-999,-999.0,-999.0,81,-99.99,,,-99.99,,2013-05-08 08:31:00,
2013-05-08 03:42:00,54.0,48.0,29.98,North,-999,-999.0,-999.0,81,-99.99,,,-99.99,,2013-05-08 08:42:00,
2013-05-08 03:51:00,52.0,46.0,29.98,North,-999,-999.0,-999.0,81,-99.99,,,-99.99,,2013-05-08 08:51:00,
2013-05-08 04:02:00,52.0,46.0,29.98,North,-999,-999.0,-999.0,81,-99.99,,,-99.99,,2013-05-08 09:02:00,
2013-05-08 04:11:00,52.0,46.0,29.98,North,-999,-999.0,-999.0,81,-99.99,,,-99.99,,2013-05-08 09:11:00,
2013-05-08 04:21:00,52.0,46.0,29.98,North,-999,-999.0,-999.0,81,-99.99,,,-99.99,,2013-05-08 09:21:00,
2013-05-08 04:32:00,52.0,46.0,29.98,North,-999,-999.0,-999.0,81,-99.99,,,-99.99,,2013-05-08 09:32:00,
2013-05-08 04:42:00,52.0,46.0,29.98,North,-999,-999.0,-999.0,81,-99.99,,,-99.99,,2013-05-08 09:42:00,
2013-05-08 04:52:00,52.0,46.0,29.98,North,-999,-999.0,-999.0,81,-99.99,,,-99.99,,2013-05-08 09:52:00,
2013-05-08 05:02:00,52.0,46.0,29.98,North,-999,-999.0,-999.0,81,-99.99,,,-99.99,,2013-05-08 10:02:00,
2013-05-08 05:12:00,52.0,46.0,29.98,North,-999,-999.0,-999.0,81,-99.99,,,-99.99,,2013-05-08 10:12:00,
2013-05-08 05:22:00,52.0,46.0,29.98,North,-999,-999.0,-999.0,81,-99.99,,,-99.99,,2013-05-08 10:22:00,
2013-05-08 05:33:00,52.0,46.0,29.98,North,-999,-999.0,-999.0,81,-99.99,,,-99.99,,2013-05-08 10:33:00,
2013-05-08 05:42:00,52.0,46.0,29.98,North,-999,-999.0,-999.0,81,-99.99,,,-99.99,,2013-05-08 10:42:00,
2013-05-08 05:52:00,54.0,48.0,29.99,North,-999,-999.0,-999.0,81,-99.99,,,-99.99,,2013-05-08 10:52:00,
2013-05-08 06:02:00,54.0,48.0,29.99,North,-999,-999.0,-999.0,81,-99.99,,,-99.99,,2013-05-08 11:02:00,
2013-05-08 06:11:00,52.0,46.0,29.99,North,-999,-999.0,-999.0,81,-99.99,,,-99.99,,2013-05-08 11:11:00,
2013-05-08 06:22:00,52.0,46.0,29.99,North,-999,-999.0,-999.0,81,-99.99,,,-99.99,,2013-05-08 11:22:00,
2013-05-08 06:32:00,54.0,48.0,30.00,North,-999,-999.0,-999.0,81,-99.99,,,-99.99,,2013-05-08 11:32:00,
2013-05-08 06:42:00,54.0,48.0,30.00,North,-999,-999.0,-999.0,81,-99.99,,,-99.99,,2013-05-08 11:42:00,
2013-05-08 06:52:00,52.0,48.0,30.00,North,-999,-999.0,-999.0,87,-99.99,,,-99.99,,2013-05-08 11:52:00,
2013-05-08 07:01:00,52.0,48.0,30.00,North,-999,-999.0,-999.0,87,-99.99,,,-99.99,,2013-05-08 12:01:00,
2013-05-08 07:11:00,52.0,48.0,30.00,North,-999,-999.0,-999.0,87,-99.99,,,-99.99,,2013-05-08 12:11:00,
2013-05-08 07:21:00,54.0,48.0,30.00,North,-999,-999.0,-999.0,81,-99.99,,,-99.99,,2013-05-08 12:21:00,
2013-05-08 07:32:00,52.0,48.0,30.00,North,-999,-999.0,-999.0,87,-99.99,,,-99.99,,2013-05-08 12:32:00,
2013-05-08 07:41:00,52.0,48.0,30.00,North,-999,-999.0,-999.0,87,-99.99,,,-99.99,,2013-05-08 12:41:00,
2013-05-08 07:51:00,52.0,48.0,30.01,North,-999,-999.0,-999.0,87,-99.99,,,-99.99,,2013-05-08 12:51:00,
2013-05-08 08:01:00,52.0,48.0,30.01,North,-999,-999.0,-999.0,87,-99.99,,,-99.99,,2013-05-08 13:01:00,
2013-05-08 08:11:00,54.0,48.0,30.01,North,-999,-999.0,-999.0,81,-99.99,,,-99.99,,2013-05-08 13:11:00,
2013-05-08 08:21:00,54.0,48.0,30.01,North,-999,-999.0,-999.0,81,-99.99,,,-99.99,,2013-05-08 13:21:00,
2013-05-08 08:32:00,54.0,52.0,30.02,North,-999,-999.0,-999.0,93,-99.99,,,-99.99,,2013-05-08 13:32:00,
2013-05-08 08:42:00,54.0,52.0,30.02,North,-999,-999.0,-999.0,93,-99.99,,,-99.99,,2013-05-08 13:42:00,
2013-05-08 08:52:00,54.0,52.0,30.02,North,-999,-999.0,-999.0,93,-99.99,,,-99.99,,2013-05-08 13:52:00,
2013-05-08 09:02:00,54.0,52.0,30.02,North,-999,-999.0,-999.0,93,-99.99,,,-99.99,,2013-05-08 14:02:00,
2013-05-08 09:11:00,55.0,52.0,30.03,North,-999,-999.0,-999.0,87,-99.99,,,-99.99,,2013-05-08 14:11:00,
2013-05-08 09:21:00,55.0,52.0,30.03,North,-999,-999.0,-999.0,87,-99.99,,,-99.99,,2013-05-08 14:21:00,
2013-05-08 09:32:00,55.0,52.0,30.03,North,-999,-999.0,-999.0,87,-99.99,,,-99.99,,2013-05-08 14:32:00,
2013-05-08 09:42:00,55.0,52.0,30.03,North,-999,-999.0,-999.0,87,-99.99,,,-99.99,,2013-05-08 14:42:00,
2013-05-08 09:51:00,55.0,54.0,30.02,North,-999,-999.0,-999.0,93,-99.99,,,-99.99,,2013-05-08 14:51:00,
2013-05-08 10:02:00,55.0,54.0,30.02,North,-999,-999.0,-999.0,93,-99.99,,,-99.99,,2013-05-08 15:02:00,
2013-05-08 10:11:00,55.0,54.0,30.04,North,-999,-999.0,-999.0,93,-99.99,,,-99.99,,2013-05-08 15:11:00,
2013-05-08 10:21:00,55.0,54.0,30.04,North,-999,-999.0,-999.0,93,-99.99,,,-99.99,,2013-05-08 15:21:00,
2013-05-08 10:33:00,55.0,54.0,30.04,North,-999,-999.0,-999.0,93,-99.99,,,-99.99,,2013-05-08 15:33:00,
2013-05-08 10:42:00,55.0,54.0,30.04,North,-999,-999.0,-999.0,93,-99.99,,,-99.99,,2013-05-08 15:42:00,
2013-05-08 10:52:00,55.0,54.0,30.03,North,-999,-999.0,-999.0,93,-99.99,,,-99.99,,2013-05-08 15:52:00,
2013-05-08 11:03:00,55.0,54.0,30.03,North,-999,-999.0,-999.0,93,-99.99,,,-99.99,,2013-05-08 16:03:00,
2013-05-08 11:12:00,55.0,54.0,30.04,North,-999,-999.0,-999.0,93,-99.99,,,-99.99,,2013-05-08 16:12:00,
2013-05-08 11:23:00,55.0,54.0,30.04,North,-999,-999.0,-999.0,93,-99.99,,,-99.99,,2013-05-08 16:23:00,
2013-05-08 11:33:00,57.0,55.0,30.04,North,-999,-999.0,-999.0,93,-99.99,,,-99.99,,2013-05-08 16:33:00,
2013-05-08 11:42:00,57.0,55.0,30.04,North,-999,-999.0,-999.0,93,-99.99,,,-99.99,,2013-05-08 16:42:00,
2013-05-08 11:52:00,57.0,54.0,30.04,North,-999,-999.0,-999.0,87,-99.99,,,-99.99,,2013-05-08 16:52:00,
2013-05-08 12:02:00,57.0,54.0,30.04,North,-999,-999.0,-999.0,87,-99.99,,,-99.99,,2013-05-08 17:02:00,
2013-05-08 12:12:00,57.0,54.0,30.04,North,-999,-999.0,-999.0,87,-99.99,,,-99.99,,2013-05-08 17:12:00,
2013-05-08 12:22:00,57.0,54.0,30.04,North,-999,-999.0,-999.0,87,-99.99,,,-99.99,,2013-05-08 17:22:00,
2013-05-08 12:31:00,57.0,54.0,30.04,North,-999,-999.0,-999.0,87,-99.99,,,-99.99,,2013-05-08 17:31:00,
2013-05-08 12:52:00,61.0,55.0,30.04,North,-999,-999.0,-999.0,82,-99.99,,,-99.99,,2013-05-08 17:52:00,
2013-05-08 13:02:00,61.0,55.0,30.04,North,-999,-999.0,-999.0,82,-99.99,,,-99.99,,2013-05-08 18:02:00,
2013-05-08 13:11:00,61.0,55.0,30.04,North,-999,-999.0,-999.0,82,-99.99,,,-99.99,,2013-05-08 18:11:00,
2013-05-08 13:21:00,61.0,55.0,30.04,North,-999,-999.0,-999.0,82,-99.99,,,-99.99,,2013-05-08 18:21:00,
2013-05-08 13:31:00,63.0,55.0,30.03,North,-999,-999.0,-999.0,77,-99.99,,,-99.99,,2013-05-08 18:31:00,
2013-05-08 13:42:00,63.0,55.0,30.03,North,-999,-999.0,-999.0,77,-99.99,,,-99.99,,2013-05-08 18:42:00,
2013-05-08 13:52:00,63.0,54.0,30.03,North,-999,-999.0,-999.0,72,-99.99,,,-99.99,,2013-05-08 18:52:00,
2013-05-08 14:01:00,63.0,54.0,30.03,North,-999,-999.0,-999.0,72,-99.99,,,-99.99,,2013-05-08 19:01:00,
2013-05-08 14:11:00,63.0,55.0,30.03,North,-999,-999.0,-999.0,77,-99.99,,,-99.99,,2013-05-08 19:11:00,
2013-05-08 14:21:00,63.0,55.0,30.03,North,-999,-999.0,-999.0,77,-99.99,,,-99.99,,2013-05-08 19:21:00,
2013-05-08 14:32:00,63.0,54.0,30.03,North,-999,-999.0,-999.0,72,-99.99,,,-99.99,,2013-05-08 19:32:00,
2013-05-08 14:42:00,63.0,54.0,30.03,North,-999,-999.0,-999.0,72,-99.99,,,-99.99,,2013-05-08 19:42:00,
2013-05-08 14:52:00,61.0,54.0,30.04,North,-999,-999.0,-999.0,77,-99.99,,,-99.99,,2013-05-08 19:52:00,
2013-05-08 15:02:00,61.0,54.0,30.04,North,-999,-999.0,-999.0,77,-99.99,,,-99.99,,2013-05-08 20:02:00,
2013-05-08 15:11:00,59.0,54.0,30.04,North,-999,-999.0,-999.0,82,-99.99,,,-99.99,,2013-05-08 20:11:00,
2013-05-08 15:22:00,59.0,54.0,30.04,North,-999,-999.0,-999.0,82,-99.99,,,-99.99,,2013-05-08 20:22:00,
2013-05-08 15:32:00,59.0,55.0,30.04,North,-999,-999.0,-999.0,87,-99.99,,,-99.99,,2013-05-08 20:32:00,
2013-05-08 15:42:00,59.0,55.0,30.04,North,-999,-999.0,-999.0,87,-99.99,,,-99.99,,2013-05-08 20:42:00,
2013-05-08 15:51:00,61.0,55.0,30.04,North,-999,-999.0,-999.0,82,-99.99,,,-99.99,,2013-05-08 20:51:00,
2013-05-08 16:01:00,61.0,55.0,30.04,North,-999,-999.0,-999.0,82,-99.99,,,-99.99,,2013-05-08 21:01:00,
2013-05-08 16:12:00,61.0,55.0,30.04,North,-999,-999.0,-999.0,82,-99.99,,,-99.99,,2013-05-08 21:12:00,
2013-05-08 16:21:00,61.0,55.0,30.04,North,-999,-999.0,-999.0,82,-99.99,,,-99.99,,2013-05-08 21:21:00,
2013-05-08 16:33:00,59.0,55.0,30.03,North,-999,-999.0,-999.0,87,-99.99,,,-99.99,,2013-05-08 21:33:00,
2013-05-08 16:43:00,59.0,55.0,30.03,North,-999,-999.0,-999.0,87,-99.99,,,-99.99,,2013-05-08 21:43:00,
2013-05-08 16:53:00,59.0,55.0,30.03,North,-999,-999.0,-999.0,87,-99.99,,,-99.99,,2013-05-08 21:53:00,
2013-05-08 17:02:00,59.0,55.0,30.03,North,-999,-999.0,-999.0,87,-99.99,,,-99.99,,2013-05-08 22:02:00,
2013-05-08 17:12:00,59.0,55.0,30.03,North,-999,-999.0,-999.0,87,-99.99,,,-99.99,,2013-05-08 22:12:00,
2013-05-08 17:22:00,59.0,55.0,30.03,North,-999,-999.0,-999.0,87,-99.99,,,-99.99,,2013-05-08 22:22:00,
2013-05-08 17:33:00,59.0,55.0,30.03,North,-999,-999.0,-999.0,87,-99.99,,,-99.99,,2013-05-08 22:33:00,
2013-05-08 17:42:00,59.0,55.0,30.03,North,-999,-999.0,-999.0,87,-99.99,,,-99.99,,2013-05-08 22:42:00,
2013-05-08 17:52:00,61.0,55.0,30.03,North,-999,-999.0,-999.0,82,-99.99,,,-99.99,,2013-05-08 22:52:00,
2013-05-08 18:01:00,61.0,55.0,30.03,North,-999,-999.0,-999.0,82,-99.99,,,-99.99,,2013-05-08 23:01:00,
2013-05-08 18:11:00,61.0,55.0,30.03,North,-999,-999.0,-999.0,82,-99.99,,,-99.99,,2013-05-08 23:11:00,
2013-05-08 18:22:00,61.0,55.0,30.03,North,-999,-999.0,-999.0,82,-99.99,,,-99.99,,2013-05-08 23:22:00,
2013-05-08 18:32:00,61.0,55.0,30.03,North,-999,-999.0,-999.0,82,-99.99,,,-99.99,,2013-05-08 23:32:00,
2013-05-08 18:42:00,61.0,55.0,30.03,North,-999,-999.0,-999.0,82,-99.99,,,-99.99,,2013-05-08 23:42:00,
2013-05-08 18:52:00,59.0,54.0,30.03,North,-999,-999.0,-999.0,82,-99.99,,,-99.99,,2013-05-08 23:52:00,
2013-05-08 19:02:00,59.0,54.0,30.03,North,-999,-999.0,-999.0,82,-99.99,,,-99.99,,2013-05-09 00:02:00,
2013-05-08 19:11:00,61.0,55.0,30.03,North,-999,-999.0,-999.0,82,-99.99,,,-99.99,,2013-05-09 00:11:00,
2013-05-08 19:21:00,61.0,55.0,30.03,North,-999,-999.0,-999.0,82,-99.99,,,-99.99,,2013-05-09 00:21:00,
2013-05-08 19:32:00,59.0,54.0,30.03,North,-999,-999.0,-999.0,82,-99.99,,,-99.99,,2013-05-09 00:32:00,
2013-05-08 19:42:00,59.0,54.0,30.03,North,-999,-999.0,-999.0,82,-99.99,,,-99.99,,2013-05-09 00:42:00,
2013-05-08 19:52:00,59.0,54.0,30.03,North,-999,-999.0,-999.0,82,-99.99,,,-99.99,,2013-05-09 00:52:00,
2013-05-08 20:01:00,59.0,54.0,30.03,North,-999,-999.0,-999.0,82,-99.99,,,-99.99,,2013-05-09 01:01:00,
2013-05-08 20:11:00,59.0,54.0,30.03,North,-999,-999.0,-999.0,82,-99.99,,,-99.99,,2013-05-09 01:11:00,
2013-05-08 20:22:00,59.0,54.0,30.03,North,-999,-999.0,-999.0,82,-99.99,,,-99.99,,2013-05-09 01:22:00,
2013-05-08 20:32:00,57.0,54.0,30.04,North,-999,-999.0,-999.0,87,-99.99,,,-99.99,,2013-05-09 01:32:00,
2013-05-08 20:42:00,57.0,54.0,30.04,North,-999,-999.0,-999.0,87,-99.99,,,-99.99,,2013-05-09 01:42:00,
2013-05-08 20:52:00,57.0,54.0,30.04,North,-999,-999.0,-999.0,87,-99.99,,,-99.99,,2013-05-09 01:52:00,
2013-05-08 21:02:00,57.0,54.0,30.04,North,-999,-999.0,-999.0,87,-99.99,,,-99.99,,2013-05-09 02:02:00,
2013-05-08 21:11:00,57.0,54.0,30.05,North,-999,-999.0,-999.0,87,-99.99,,,-99.99,,2013-05-09 02:11:00,
2013-05-08 21:22:00,57.0,54.0,30.05,North,-999,-999.0,-999.0,87,-99.99,,,-99.99,,2013-05-09 02:22:00,
2013-05-08 21:32:00,57.0,54.0,30.05,North,-999,-999.0,-999.0,87,-99.99,,,-99.99,,2013-05-09 02:32:00,
2013-05-08 21:41:00,57.0,54.0,30.05,North,-999,-999.0,-999.0,87,-99.99,,,-99.99,,2013-05-09 02:41:00,
2013-05-08 21:52:00,57.0,54.0,30.05,North,-999,-999.0,-999.0,87,-99.99,,,-99.99,,2013-05-09 02:52:00,
2013-05-08 22:01:00,57.0,54.0,30.06,North,-999,-999.0,-999.0,87,-99.99,,,-99.99,,2013-05-09 03:01:00,
2013-05-08 22:11:00,57.0,54.0,30.06,North,-999,-999.0,-999.0,87,-99.99,,,-99.99,,2013-05-09 03:11:00,
2013-05-08 22:21:00,57.0,54.0,30.06,North,-999,-999.0,-999.0,87,-99.99,,,-99.99,,2013-05-09 03:21:00,
2013-05-08 22:33:00,57.0,54.0,30.06,North,-999,-999.0,-999.0,87,-99.99,,,-99.99,,2013-05-09 03:33:00,
2013-05-08 22:43:00,57.0,54.0,30.06,North,-999,-999.0,-999.0,87,-99.99,,,-99.99,,2013-05-09 03:43:00,
2013-05-08 22:52:00,57.0,54.0,30.07,North,-999,-999.0,-999.0,87,-99.99,,,-99.99,,2013-05-09 03:52:00,
2013-05-08 23:03:00,57.0,54.0,30.07,North,-999,-999.0,-999.0,87,-99.99,,,-99.99,,2013-05-09 04:03:00,
2013-05-08 23:12:00,55.0,52.0,30.07,North,-999,-999.0,-999.0,87,-99.99,,,-99.99,,2013-05-09 04:12:00,
2013-05-08 23:23:00,55.0,52.0,30.07,North,-999,-999.0,-999.0,87,-99.99,,,-99.99,,2013-05-09 04:23:00,
2013-05-08 23:33:00,57.0,54.0,30.07,North,-999,-999.0,-999.0,87,-99.99,,,-99.99,,2013-05-09 04:33:00,
2013-05-08 23:43:00,57.0,54.0,30.07,North,-999,-999.0,-999.0,87,-99.99,,,-99.99,,2013-05-09 04:43:00,
2013-05-08 23:52:00,55.0,52.0,30.07,North,-999,-999.0,-999.0,87,-99.99,,,-99.99,,2013-05-09 04:52:00,